createdAt,value
2018-05-18T00:01:26.947Z,77.10
2018-05-18T00:03:55.421Z,78.00
2018-05-18T00:06:23.987Z,77.30
2018-05-18T00:08:52.452Z,77.70
2018-05-18T00:11:20.914Z,78.80
2018-05-18T00:13:49.376Z,77.60
2018-05-18T00:16:18.092Z,77.00
2018-05-18T00:18:46.599Z,77.80
2018-05-18T00:21:15.051Z,78.10
2018-05-18T00:23:43.507Z,78.00
2018-05-18T00:26:11.949Z,77.20
2018-05-18T00:28:40.450Z,76.80
2018-05-18T00:31:09.044Z,78.20
2018-05-18T00:33:37.512Z,78.30
2018-05-18T00:36:05.962Z,77.90
2018-05-18T00:38:34.459Z,76.30
2018-05-18T00:41:02.916Z,76.70
2018-05-18T00:43:31.392Z,76.90
2018-05-18T00:45:59.836Z,76.70
2018-05-18T00:48:28.300Z,76.70
2018-05-18T00:50:56.753Z,76.90
2018-05-18T00:53:25.207Z,76.90
2018-05-18T00:55:53.672Z,76.70
2018-05-18T00:58:22.125Z,77.30
2018-05-18T01:00:50.590Z,77.30
2018-05-18T01:03:19.043Z,77.30
2018-05-18T01:05:47.516Z,76.80
2018-05-18T01:08:15.973Z,77.40
2018-05-18T01:10:44.435Z,77.00
2018-05-18T01:13:12.884Z,76.50
2018-05-18T01:15:42.120Z,76.60
2018-05-18T01:18:10.583Z,76.50
2018-05-18T01:20:39.047Z,77.00
2018-05-18T01:23:08.258Z,77.30
2018-05-18T01:25:36.728Z,77.30
2018-05-18T01:28:04.839Z,77.50
2018-05-18T01:30:33.859Z,76.70
2018-05-18T01:33:02.341Z,77.50
2018-05-18T01:35:30.800Z,77.30
2018-05-18T01:37:59.243Z,77.00
2018-05-18T01:40:29.124Z,77.40
2018-05-18T01:42:57.563Z,77.40
2018-05-18T01:45:26.027Z,78.20
2018-05-18T01:47:54.480Z,77.50
2018-05-18T01:50:22.936Z,78.70
2018-05-18T01:52:51.401Z,78.20
2018-05-18T01:55:19.876Z,77.30
2018-05-18T01:57:48.380Z,77.80
2018-05-18T02:00:16.908Z,78.70
2018-05-18T02:02:45.351Z,78.00
2018-05-18T02:05:13.819Z,78.40
2018-05-18T02:07:42.268Z,77.80
2018-05-18T02:10:10.734Z,77.20
2018-05-18T02:12:39.944Z,76.90
2018-05-18T02:15:08.415Z,76.90
2018-05-18T02:17:36.895Z,76.50
2018-05-18T02:20:05.365Z,77.90
2018-05-18T02:22:33.816Z,78.10
2018-05-18T02:25:02.285Z,78.20
2018-05-18T02:27:30.732Z,78.30
2018-05-18T02:29:59.202Z,78.70
2018-05-18T02:32:27.359Z,79.10
2018-05-18T02:34:55.828Z,78.40
2018-05-18T02:37:24.277Z,77.80
2018-05-18T02:39:52.748Z,78.00
2018-05-18T02:42:21.196Z,78.50
2018-05-18T02:44:49.328Z,77.50
2018-05-18T02:47:17.436Z,77.50
2018-05-18T02:49:45.897Z,77.60
2018-05-18T02:52:14.411Z,77.20
2018-05-18T02:54:42.705Z,77.40
2018-05-18T02:57:12.396Z,76.30
2018-05-18T02:59:40.831Z,76.20
2018-05-18T03:02:09.296Z,76.20
2018-05-18T03:04:37.761Z,75.80
2018-05-18T03:07:06.971Z,76.10
2018-05-18T03:09:35.436Z,76.10
2018-05-18T03:12:04.216Z,76.10
2018-05-18T03:14:32.655Z,76.10
2018-05-18T03:17:01.112Z,75.60
2018-05-18T03:19:29.556Z,76.20
2018-05-18T03:21:59.242Z,76.30
2018-05-18T03:24:28.457Z,76.90
2018-05-18T03:26:56.916Z,76.90
2018-05-18T03:29:25.371Z,75.20
2018-05-18T03:31:53.831Z,75.00
2018-05-18T03:34:22.288Z,75.30
2018-05-18T03:36:50.759Z,76.10
2018-05-18T03:39:18.987Z,75.20
2018-05-18T03:41:47.452Z,73.90
2018-05-18T03:44:17.518Z,74.60
2018-05-18T03:46:45.979Z,74.60
2018-05-18T03:49:14.430Z,74.90
2018-05-18T03:51:43.663Z,76.00
2018-05-18T03:54:12.099Z,75.90
2018-05-18T03:56:40.555Z,74.30
2018-05-18T03:59:08.997Z,73.00
2018-05-18T04:01:48.667Z,72.40
2018-05-18T04:04:29.368Z,73.20
2018-05-18T04:07:08.778Z,72.70
2018-05-18T04:09:37.979Z,72.50
2018-05-18T04:12:08.448Z,72.50
2018-05-18T04:14:37.641Z,72.90
2018-05-18T04:17:06.879Z,73.10
2018-05-18T04:19:35.321Z,72.90
2018-05-18T04:22:03.809Z,72.00
2018-05-18T04:24:32.498Z,71.60
2018-05-18T04:27:00.991Z,72.70
2018-05-18T04:29:29.455Z,74.40
2018-05-18T04:31:57.919Z,72.00
2018-05-18T04:34:26.358Z,72.20
2018-05-18T04:36:54.831Z,71.90
2018-05-18T04:39:23.277Z,72.40
2018-05-18T04:41:51.791Z,72.10
2018-05-18T04:44:20.263Z,71.30
2018-05-18T04:46:48.725Z,71.00
2018-05-18T04:49:17.168Z,71.00
2018-05-18T04:51:45.680Z,71.80
2018-05-18T04:54:14.287Z,70.30
2018-05-18T04:56:44.059Z,70.00
2018-05-18T04:59:12.491Z,70.00
2018-05-18T05:01:40.997Z,70.30
2018-05-18T05:04:09.103Z,70.70
2018-05-18T05:06:37.567Z,71.60
2018-05-18T05:09:06.465Z,71.30
2018-05-18T05:11:34.948Z,70.10
2018-05-18T05:14:03.397Z,70.00
2018-05-18T05:16:31.877Z,69.80
2018-05-18T05:19:00.333Z,69.30
2018-05-18T05:21:28.805Z,71.10
2018-05-18T05:23:57.514Z,70.40
2018-05-18T05:26:25.979Z,69.20
2018-05-18T05:28:54.473Z,68.30
2018-05-18T05:31:22.976Z,69.90
2018-05-18T05:33:51.092Z,67.90
2018-05-18T05:36:19.562Z,68.60
2018-05-18T05:38:48.054Z,68.50
2018-05-18T05:41:16.533Z,68.30
2018-05-18T05:43:44.974Z,69.10
2018-05-18T05:46:13.459Z,69.30
2018-05-18T05:48:43.534Z,66.90
2018-05-18T05:51:13.167Z,67.30
2018-05-18T05:53:42.385Z,67.30
2018-05-18T05:56:11.688Z,67.30
2018-05-18T05:58:40.219Z,68.30
2018-05-18T06:01:08.721Z,67.50
2018-05-18T06:03:37.183Z,66.90
2018-05-18T06:06:05.648Z,66.50
2018-05-18T06:08:34.129Z,66.40
2018-05-18T06:11:02.593Z,64.30
2018-05-18T06:13:30.848Z,65.20
2018-05-18T06:15:59.297Z,64.60
2018-05-18T06:18:27.763Z,65.10
2018-05-18T06:20:56.228Z,65.10
2018-05-18T06:23:24.691Z,64.00
2018-05-18T06:25:52.811Z,63.60
2018-05-18T06:28:22.124Z,61.60
2018-05-18T06:30:50.796Z,60.90
2018-05-18T06:33:19.271Z,62.20
2018-05-18T06:35:47.999Z,62.70
2018-05-18T06:38:16.471Z,62.10
2018-05-18T06:40:44.977Z,63.10
2018-05-18T06:43:13.674Z,61.90
2018-05-18T06:45:42.127Z,62.70
2018-05-18T06:48:10.591Z,62.00
2018-05-18T06:50:39.351Z,62.40
2018-05-18T06:55:41.843Z,60.70
2018-05-18T06:58:10.316Z,59.30
2018-05-18T07:00:38.761Z,60.40
2018-05-18T07:03:07.992Z,60.70
2018-05-18T07:05:36.440Z,60.00
2018-05-18T07:08:05.342Z,60.70
2018-05-18T07:10:33.845Z,60.60
2018-05-18T07:13:02.492Z,58.70
2018-05-18T07:15:30.948Z,58.50
2018-05-18T07:17:59.407Z,61.60
2018-05-18T07:20:27.857Z,60.30
2018-05-18T07:22:56.353Z,62.40
2018-05-18T07:25:24.975Z,59.90
2018-05-18T07:27:53.767Z,60.80
2018-05-18T07:30:22.980Z,59.10
2018-05-18T07:32:51.441Z,59.10
2018-05-18T07:35:19.887Z,60.90
2018-05-18T07:37:48.350Z,59.70
2018-05-18T07:40:16.795Z,58.80
2018-05-18T07:42:45.272Z,58.80
2018-05-18T07:45:13.759Z,60.10
2018-05-18T07:47:42.387Z,61.20
2018-05-18T07:50:10.849Z,60.70
2018-05-18T07:52:40.420Z,59.60
2018-05-18T07:55:09.261Z,58.60
2018-05-18T07:57:37.728Z,59.30
2018-05-18T08:00:05.508Z,58.80
2018-05-18T08:02:33.978Z,59.60
2018-05-18T08:05:02.432Z,59.70
2018-05-18T08:07:30.891Z,60.00
2018-05-18T08:09:59.376Z,60.70
2018-05-18T08:12:27.827Z,59.30
2018-05-18T08:14:56.731Z,57.80
2018-05-18T08:17:26.103Z,57.70
2018-05-18T08:19:54.560Z,57.00
2018-05-18T08:22:23.009Z,56.90
2018-05-18T08:24:51.664Z,57.70
2018-05-18T08:27:24.117Z,56.90
2018-05-18T08:29:52.585Z,57.00
2018-05-18T08:32:21.081Z,57.30
2018-05-18T08:34:49.553Z,56.60
2018-05-18T08:37:18.005Z,56.30
2018-05-18T08:39:46.474Z,53.30
2018-05-18T08:42:14.914Z,52.90
2018-05-18T08:44:43.396Z,53.60
2018-05-18T08:47:12.631Z,53.90
2018-05-18T08:49:41.099Z,53.90
2018-05-18T08:52:10.303Z,53.30
2018-05-18T08:54:39.529Z,53.40
2018-05-18T08:57:07.981Z,53.40
2018-05-18T08:59:37.214Z,54.00
2018-05-18T09:02:05.659Z,54.00
2018-05-18T09:04:34.888Z,55.70
2018-05-18T09:07:03.340Z,55.70
2018-05-18T09:09:32.576Z,53.40
2018-05-18T09:12:01.010Z,53.40
2018-05-18T09:14:30.307Z,52.10
2018-05-18T09:16:58.759Z,52.60
2018-05-18T09:19:28.241Z,52.20
2018-05-18T09:21:56.677Z,53.50
2018-05-18T09:24:25.136Z,52.60
2018-05-18T09:26:53.895Z,51.80
2018-05-18T09:29:22.367Z,52.50
2018-05-18T09:31:50.812Z,53.00
2018-05-18T09:34:19.309Z,52.60
2018-05-18T09:36:47.935Z,54.80
2018-05-18T09:39:17.419Z,54.50
2018-05-18T09:41:45.871Z,53.30
2018-05-18T09:44:14.347Z,53.40
2018-05-18T09:46:42.805Z,53.60
2018-05-18T09:49:11.266Z,52.40
2018-05-18T09:51:39.709Z,53.00
2018-05-18T09:54:08.281Z,53.70
2018-05-18T09:56:36.827Z,51.30
2018-05-18T09:59:05.283Z,53.10
2018-05-18T10:01:35.046Z,56.10
2018-05-18T10:04:03.508Z,53.60
2018-05-18T10:06:31.970Z,53.40
2018-05-18T10:09:00.438Z,51.90
2018-05-18T10:11:28.895Z,51.80
2018-05-18T10:13:57.368Z,53.10
2018-05-18T10:16:26.360Z,54.50
2018-05-18T10:18:54.842Z,53.40
2018-05-18T10:21:23.289Z,54.80
2018-05-18T10:23:51.735Z,52.10
2018-05-18T10:26:20.218Z,54.20
2018-05-18T10:28:48.703Z,52.70
2018-05-18T10:31:17.167Z,53.00
2018-05-18T10:33:46.380Z,51.80
2018-05-18T10:36:14.843Z,51.90
2018-05-18T10:38:43.291Z,51.60
2018-05-18T10:41:11.755Z,52.90
2018-05-18T10:43:40.220Z,54.50
2018-05-18T10:46:08.691Z,52.50
2018-05-18T10:48:37.144Z,52.70
2018-05-18T10:51:05.383Z,52.80
2018-05-18T10:53:33.838Z,52.10
2018-05-18T10:56:02.310Z,50.50
2018-05-18T10:58:30.801Z,52.30
2018-05-18T11:00:59.413Z,53.80
2018-05-18T11:03:29.071Z,52.50
2018-05-18T11:05:57.549Z,54.80
2018-05-18T11:08:25.999Z,53.50
2018-05-18T11:10:54.470Z,54.10
2018-05-18T11:13:22.919Z,54.80
2018-05-18T11:15:51.383Z,55.70
2018-05-18T11:18:20.599Z,54.70
2018-05-18T11:20:49.075Z,54.60
2018-05-18T11:23:17.525Z,53.60
2018-05-18T11:25:46.000Z,54.00
2018-05-18T11:28:14.443Z,53.30
2018-05-18T11:30:42.917Z,51.90
2018-05-18T11:33:11.680Z,53.40
2018-05-18T11:35:41.686Z,54.60
2018-05-18T11:38:10.135Z,53.30
2018-05-18T11:40:38.604Z,54.50
2018-05-18T11:43:07.124Z,54.40
2018-05-18T11:45:36.476Z,53.20
2018-05-18T11:48:04.939Z,53.20
2018-05-18T11:50:33.419Z,56.00
2018-05-18T11:53:01.869Z,54.70
2018-05-18T11:55:30.340Z,53.10
2018-05-18T11:57:58.784Z,53.90
2018-05-18T12:00:27.248Z,51.70
2018-05-18T12:02:55.739Z,52.50
2018-05-18T12:05:24.375Z,53.20
2018-05-18T12:07:52.830Z,51.80
2018-05-18T12:10:21.296Z,53.20
2018-05-18T12:12:49.734Z,56.70
2018-05-18T12:15:18.200Z,53.30
2018-05-18T12:17:46.651Z,51.80
2018-05-18T12:20:15.123Z,50.60
2018-05-18T12:22:43.564Z,51.40
2018-05-18T12:25:12.024Z,52.50
2018-05-18T12:27:40.463Z,51.80
2018-05-18T12:30:08.930Z,53.10
2018-05-18T12:32:38.160Z,52.90
2018-05-18T12:35:06.625Z,52.90
2018-05-18T12:37:35.076Z,52.40
2018-05-18T12:40:03.525Z,54.10
2018-05-18T12:42:31.997Z,53.50
2018-05-18T12:45:00.439Z,53.50
2018-05-18T12:47:29.027Z,56.50
2018-05-18T12:49:57.475Z,54.60
2018-05-18T12:52:25.961Z,52.60
2018-05-18T12:54:54.414Z,53.20
2018-05-18T12:57:23.653Z,52.80
2018-05-18T12:59:52.100Z,52.80
2018-05-18T13:02:20.568Z,53.80
2018-05-18T13:04:49.024Z,54.30
2018-05-18T13:07:17.492Z,53.90
2018-05-18T13:09:45.940Z,54.20
2018-05-18T13:12:14.423Z,53.20
2018-05-18T13:14:42.875Z,53.60
2018-05-18T13:17:11.344Z,51.50
2018-05-18T13:19:39.799Z,51.80
2018-05-18T13:22:08.277Z,52.70
2018-05-18T13:24:36.723Z,54.50
2018-05-18T13:27:06.124Z,53.10
2018-05-18T13:29:34.567Z,55.30
2018-05-18T13:32:03.040Z,53.40
2018-05-18T13:34:31.492Z,53.10
2018-05-18T13:36:59.963Z,52.90
2018-05-18T13:39:28.417Z,53.80
2018-05-18T13:41:56.888Z,53.60
2018-05-18T13:44:25.335Z,55.10
2018-05-18T13:46:54.760Z,53.70
2018-05-18T13:49:23.207Z,53.50
2018-05-18T13:51:51.784Z,55.50
2018-05-18T13:54:20.331Z,53.50
2018-05-18T13:56:48.802Z,53.60
2018-05-18T13:59:17.238Z,53.50
2018-05-18T14:01:45.715Z,53.70
2018-05-18T14:04:14.165Z,53.00
2018-05-18T14:06:42.632Z,56.20
2018-05-18T14:09:11.071Z,54.70
2018-05-18T14:11:39.536Z,53.70
2018-05-18T14:14:08.004Z,53.70
2018-05-18T14:16:36.471Z,54.10
2018-05-18T14:19:04.919Z,54.40
2018-05-18T14:21:33.397Z,53.30
2018-05-18T14:24:01.845Z,54.20
2018-05-18T14:26:31.186Z,54.00
2018-05-18T14:28:59.735Z,54.00
2018-05-18T14:31:28.231Z,53.90
2018-05-18T14:33:56.683Z,53.30
2018-05-18T14:36:25.147Z,53.50
2018-05-18T14:38:53.600Z,53.60
2018-05-18T14:41:22.052Z,53.60
2018-05-18T14:43:51.521Z,54.40
2018-05-18T14:46:20.111Z,54.30
2018-05-18T14:48:48.547Z,53.00
2018-05-18T14:51:17.002Z,53.80
2018-05-18T14:53:45.667Z,53.90
2018-05-18T14:56:14.496Z,52.60
2018-05-18T14:58:43.021Z,53.60
2018-05-18T15:01:11.473Z,53.40
2018-05-18T15:03:39.958Z,53.90
2018-05-18T15:06:08.407Z,54.80
2018-05-18T15:08:36.879Z,54.40
2018-05-18T15:11:05.377Z,53.00
2018-05-18T15:13:33.979Z,53.50
2018-05-18T15:16:03.203Z,53.90
2018-05-18T15:18:31.687Z,53.90
2018-05-18T15:21:00.148Z,54.40
2018-05-18T15:23:28.638Z,53.80
2018-05-18T15:25:57.092Z,54.60
2018-05-18T15:28:25.561Z,55.10
2018-05-18T15:30:54.007Z,53.00
2018-05-18T15:33:22.468Z,52.80
2018-05-18T15:35:50.920Z,54.30
2018-05-18T15:38:19.401Z,56.20
2018-05-18T15:40:47.857Z,55.90
2018-05-18T15:43:17.044Z,56.70
2018-05-18T15:45:45.500Z,56.20
2018-05-18T15:48:14.168Z,54.80
2018-05-18T15:50:43.394Z,54.50
2018-05-18T15:53:11.869Z,54.50
2018-05-18T15:55:40.307Z,55.00
2018-05-18T15:58:08.785Z,56.00
2018-05-18T16:00:37.243Z,56.40
2018-05-18T16:03:05.704Z,56.00
2018-05-18T16:05:34.148Z,56.60
2018-05-18T16:08:02.606Z,54.50
2018-05-18T16:10:31.054Z,55.70
2018-05-18T16:12:59.636Z,55.40
2018-05-18T16:15:28.175Z,55.80
2018-05-18T16:17:56.647Z,57.10
2018-05-18T16:20:25.107Z,57.50
2018-05-18T16:22:53.569Z,56.20
2018-05-18T16:25:22.020Z,57.40
2018-05-18T16:27:50.558Z,57.50
2018-05-18T16:30:19.143Z,56.70
2018-05-18T16:32:47.623Z,57.30
2018-05-18T16:35:16.129Z,57.30
2018-05-18T16:37:44.595Z,56.20
2018-05-18T16:40:13.138Z,56.70
2018-05-18T16:42:41.692Z,56.70
2018-05-18T16:45:10.147Z,56.20
2018-05-18T16:47:38.607Z,55.90
2018-05-18T16:50:07.052Z,56.30
2018-05-18T16:52:35.499Z,56.00
2018-05-18T16:55:03.635Z,55.50
2018-05-18T16:57:32.083Z,55.10
2018-05-18T17:00:00.548Z,55.60
2018-05-18T17:02:29.018Z,56.20
2018-05-18T17:04:57.140Z,57.30
2018-05-18T17:07:25.584Z,55.80
2018-05-18T17:09:54.815Z,55.90
2018-05-18T17:12:23.356Z,55.80
2018-05-18T17:14:51.931Z,55.50
2018-05-18T17:17:20.377Z,55.20
2018-05-18T17:19:48.914Z,55.50
2018-05-18T17:22:17.516Z,55.60
2018-05-18T17:24:46.605Z,55.90
2018-05-18T17:27:15.057Z,56.20
2018-05-18T17:29:43.532Z,56.30
2018-05-18T17:32:11.980Z,56.00
2018-05-18T17:34:40.447Z,56.40
2018-05-18T17:37:08.908Z,57.30
2018-05-18T17:39:38.143Z,57.90
2018-05-18T17:42:06.594Z,57.30
2018-05-18T17:44:35.065Z,57.90
2018-05-18T17:47:03.288Z,57.90
2018-05-18T17:49:31.535Z,57.90
2018-05-18T17:51:59.652Z,58.00
2018-05-18T17:54:27.800Z,58.60
2018-05-18T17:56:56.419Z,58.40
2018-05-18T17:59:24.891Z,60.10
2018-05-18T18:01:53.331Z,60.70
2018-05-18T18:04:21.808Z,59.70
2018-05-18T18:06:50.260Z,59.50
2018-05-18T18:09:20.327Z,59.00
2018-05-18T18:11:50.184Z,59.40
2018-05-18T18:14:19.203Z,60.70
2018-05-18T18:16:47.632Z,60.80
2018-05-18T18:19:16.095Z,60.90
2018-05-18T18:21:44.541Z,60.60
2018-05-18T18:24:14.067Z,61.60
2018-05-18T18:26:44.477Z,61.60
2018-05-18T18:29:13.178Z,61.60
2018-05-18T18:31:42.952Z,61.40
2018-05-18T18:34:11.547Z,61.30
2018-05-18T18:36:40.818Z,62.50
2018-05-18T18:39:10.340Z,62.40
2018-05-18T18:41:39.812Z,61.90
2018-05-18T18:44:08.323Z,63.00
2018-05-18T18:46:37.799Z,63.30
2018-05-18T18:49:05.996Z,62.50
2018-05-18T18:51:35.032Z,63.70
2018-05-18T18:54:05.132Z,63.90
2018-05-18T18:56:33.803Z,64.70
2018-05-18T18:59:02.267Z,65.40
2018-05-18T19:01:30.979Z,67.20
2018-05-18T19:04:00.375Z,66.80
2018-05-18T19:06:30.834Z,66.00
2018-05-18T19:08:59.640Z,65.30
2018-05-18T19:11:29.839Z,65.30
2018-05-18T19:14:00.600Z,65.80
2018-05-18T19:16:31.064Z,66.70
2018-05-18T19:19:00.679Z,67.40
2018-05-18T19:21:29.746Z,66.90
2018-05-18T19:23:59.543Z,66.90
2018-05-18T19:26:28.587Z,66.90
2018-05-18T19:28:59.220Z,67.00
2018-05-18T19:31:28.487Z,66.20
2018-05-18T19:33:59.080Z,66.60
2018-05-18T19:36:27.595Z,66.60
2018-05-18T19:38:57.215Z,67.10
2018-05-18T19:41:26.827Z,67.00
2018-05-18T19:43:56.035Z,67.30
2018-05-18T19:46:25.819Z,67.30
2018-05-18T19:48:54.932Z,67.60
2018-05-18T19:51:25.274Z,68.30
2018-05-18T19:53:54.595Z,68.30
2018-05-18T19:56:24.188Z,69.80
2018-05-18T19:58:54.484Z,69.80
2018-05-18T20:01:23.559Z,68.90
2018-05-18T20:03:54.072Z,68.30
2018-05-18T20:06:23.321Z,68.50
2018-05-18T20:08:51.879Z,68.20
2018-05-18T20:11:21.851Z,68.50
2018-05-18T20:13:50.535Z,68.30
2018-05-18T20:16:18.752Z,68.80
2018-05-18T20:18:48.208Z,68.90
2018-05-18T20:21:17.895Z,68.80
2018-05-18T20:23:47.607Z,68.90
2018-05-18T20:26:18.271Z,69.10
2018-05-18T20:28:47.115Z,69.10
2018-05-18T20:31:15.278Z,68.80
2018-05-18T20:33:44.358Z,69.00
2018-05-18T20:36:12.860Z,68.80
2018-05-18T20:38:42.345Z,68.40
2018-05-18T20:41:11.691Z,69.10
2018-05-18T20:43:41.091Z,68.90
2018-05-18T20:46:09.519Z,69.80
2018-05-18T20:48:39.163Z,69.70
2018-05-18T20:51:07.696Z,70.30
2018-05-18T20:53:36.707Z,70.50
2018-05-18T20:56:05.103Z,70.20
2018-05-18T20:58:34.198Z,70.60
2018-05-18T21:01:04.324Z,70.40
2018-05-18T21:03:34.987Z,70.50
2018-05-18T21:06:03.652Z,70.30
2018-05-18T21:08:33.690Z,70.50
2018-05-18T21:11:02.462Z,71.00
2018-05-18T21:13:30.936Z,71.10
2018-05-18T21:15:59.414Z,71.30
2018-05-18T21:18:27.268Z,71.60
2018-05-18T21:20:55.744Z,71.60
2018-05-18T21:23:24.347Z,72.30
2018-05-18T21:25:53.331Z,72.20
2018-05-18T21:28:21.488Z,72.90
2018-05-18T21:30:50.946Z,72.60
2018-05-18T21:33:20.643Z,73.30
2018-05-18T21:35:49.747Z,73.30
2018-05-18T21:38:17.932Z,73.60
2018-05-18T21:40:47.816Z,74.20
2018-05-18T21:43:16.295Z,74.10
2018-05-18T21:45:44.799Z,73.90
2018-05-18T21:48:13.279Z,73.30
2018-05-18T21:50:41.995Z,74.40
2018-05-18T21:53:11.292Z,74.40
2018-05-18T21:55:41.911Z,76.00
2018-05-18T21:58:10.404Z,75.80
2018-05-18T22:00:38.531Z,75.00
2018-05-18T22:03:07.015Z,75.60
2018-05-18T22:05:35.740Z,75.60
2018-05-18T22:08:05.235Z,76.00
2018-05-18T22:10:33.775Z,77.90
2018-05-18T22:13:02.992Z,76.60
2018-05-18T22:15:31.552Z,76.80
2018-05-18T22:18:00.448Z,76.80
2018-05-18T22:20:29.551Z,77.80
2018-05-18T22:22:58.055Z,78.00
2018-05-18T22:25:26.247Z,77.90
2018-05-18T22:27:54.148Z,78.90
2018-05-18T22:30:25.348Z,79.50
2018-05-18T22:32:54.047Z,79.40
2018-05-18T22:35:23.967Z,80.00
2018-05-18T22:37:53.059Z,79.90
2018-05-18T22:40:22.637Z,81.00
2018-05-18T22:42:52.248Z,81.50
2018-05-18T22:45:21.045Z,81.30
2018-05-18T22:47:49.204Z,81.50
2018-05-18T22:50:17.384Z,83.10
2018-05-18T22:52:45.471Z,83.00
2018-05-18T22:55:15.697Z,83.80
2018-05-18T22:57:45.507Z,83.40
2018-05-18T23:00:30.266Z,83.50
2018-05-18T23:03:00.010Z,82.40
2018-05-18T23:05:28.899Z,83.60
2018-05-18T23:07:56.791Z,83.80
2018-05-18T23:10:27.952Z,84.30
2018-05-18T23:12:58.192Z,84.50
2018-05-18T23:15:28.335Z,85.50
2018-05-18T23:18:01.134Z,84.80
2018-05-18T23:20:31.752Z,84.20
2018-05-18T23:23:01.567Z,84.60
2018-05-18T23:25:30.007Z,85.00
2018-05-18T23:27:59.515Z,85.70
2018-05-18T23:30:31.806Z,86.20
2018-05-18T23:33:00.344Z,86.30
2018-05-18T23:35:29.172Z,87.30
2018-05-18T23:37:57.636Z,86.60
2018-05-18T23:40:26.171Z,86.70
2018-05-18T23:42:54.996Z,87.00
2018-05-18T23:45:22.879Z,87.90
2018-05-18T23:47:52.283Z,88.20
2018-05-18T23:50:20.495Z,88.90
2018-05-18T23:52:49.987Z,88.90
2018-05-18T23:55:18.443Z,88.70
2018-05-18T23:57:46.624Z,89.10
